Time;durP1;ratioP1;P1;durP2;ratioP2;P2;SDS_P1;SDS_P2;PMS_P1;PMS_P2;Temp;Humidity;BMP_temperature;BMP_pressure;BME280_temperature;BME280_humidity;BME280_pressure;Samples;Min_cycle;Max_cycle;Signal;HPM_P1;HPM_P2
2023/06/15 00:00:27;;;;;;;8.23;2.10;;;16.30;96.50;;;;;;5035782;28;20044;-76
2023/06/15 00:02:52;;;;;;;8.43;1.92;;;16.20;96.40;;;;;;5070152;28;20036;-77
2023/06/15 00:05:18;;;;;;;7.78;2.10;;;16.20;96.50;;;;;;5051902;28;20057;-76
2023/06/15 00:07:44;;;;;;;3.85;1.95;;;16.20;96.60;;;;;;5051914;28;20055;-76
2023/06/15 00:10:11;;;;;;;9.23;2.63;;;16.20;96.40;;;;;;5034757;28;20064;-76
2023/06/15 00:12:36;;;;;;;7.55;2.40;;;16.20;96.50;;;;;;5070005;28;20059;-76
2023/06/15 00:15:02;;;;;;;8.15;2.03;;;16.10;96.70;;;;;;5052456;28;20036;-75
2023/06/15 00:17:31;;;;;;;9.93;2.35;;;16.10;96.60;;;;;;5069534;28;20087;-76
2023/06/15 00:20:00;;;;;;;5.78;2.10;;;16.20;96.60;;;;;;5069814;28;20124;-75
2023/06/15 00:22:28;;;;;;;4.10;2.17;;;16.10;96.50;;;;;;5069644;28;20062;-75
2023/06/15 00:24:54;;;;;;;8.05;2.05;;;16.10;96.50;;;;;;5072008;28;20045;-76
2023/06/15 00:27:20;;;;;;;8.52;3.38;;;16.10;96.80;;;;;;5073372;28;20134;-77
2023/06/15 00:29:46;;;;;;;4.55;1.98;;;16.10;96.80;;;;;;5055493;28;20127;-76
2023/06/15 00:32:11;;;;;;;6.13;2.13;;;16.00;97.10;;;;;;5055426;28;20039;-77
2023/06/15 00:34:37;;;;;;;9.73;3.08;;;16.00;97.20;;;;;;5055073;28;20049;-77
2023/06/15 00:37:03;;;;;;;6.07;2.20;;;16.00;97.60;;;;;;5055467;28;20040;-76
2023/06/15 00:39:28;;;;;;;6.43;2.20;;;15.90;97.30;;;;;;5055197;28;20044;-76
2023/06/15 00:41:54;;;;;;;8.48;3.17;;;15.90;97.40;;;;;;5072982;28;20068;-76
2023/06/15 00:44:20;;;;;;;4.93;2.40;;;15.90;97.30;;;;;;5073444;28;20044;-77
2023/06/15 00:46:45;;;;;;;4.85;2.50;;;15.90;97.30;;;;;;5073075;28;20045;-77
2023/06/15 00:49:11;;;;;;;5.25;2.28;;;15.90;97.40;;;;;;5055186;28;20044;-76
2023/06/15 00:51:39;;;;;;;6.10;2.33;;;15.90;97.60;;;;;;5055162;28;20040;-76
2023/06/15 00:54:05;;;;;;;5.88;2.55;;;15.80;97.90;;;;;;5055040;28;20079;-76
2023/06/15 00:56:31;;;;;;;8.60;2.55;;;15.70;98.00;;;;;;5073129;28;20048;-76
2023/06/15 00:58:57;;;;;;;5.45;2.58;;;15.70;98.10;;;;;;5073016;28;20040;-75
2023/06/15 01:01:23;;;;;;;6.55;2.80;;;15.70;98.10;;;;;;5055050;28;20047;-77
2023/06/15 01:03:50;;;;;;;5.47;2.13;;;15.70;98.20;;;;;;5054416;28;20059;-76
2023/06/15 01:06:19;;;;;;;7.25;3.00;;;15.70;98.50;;;;;;5054728;28;20056;-76
2023/06/15 01:08:47;;;;;;;10.50;2.85;;;15.70;98.20;;;;;;5054429;28;20048;-76
2023/06/15 01:11:14;;;;;;;15.23;2.88;;;15.60;98.30;;;;;;5054490;28;20055;-76
2023/06/15 01:13:42;;;;;;;8.13;2.60;;;15.60;98.40;;;;;;5072703;28;20124;-76
2023/06/15 01:16:23;;;;;;;5.80;2.58;;;15.60;98.50;;;;;;5072383;28;20088;-75
2023/06/15 01:18:57;;;;;;;10.02;2.70;;;15.60;99.00;;;;;;5065923;28;20098;-76
2023/06/15 01:21:28;;;;;;;4.72;2.60;;;15.60;98.80;;;;;;5054238;28;20045;-76
2023/06/15 01:24:05;;;;;;;7.45;2.97;;;15.50;98.80;;;;;;5072615;28;20080;-76
2023/06/15 01:26:33;;;;;;;5.32;2.97;;;15.50;99.00;;;;;;5072307;28;20041;-77
2023/06/15 01:28:59;;;;;;;8.18;3.33;;;15.50;99.00;;;;;;5072235;28;20052;-76
2023/06/15 01:31:27;;;;;;;5.80;2.92;;;15.50;99.10;;;;;;5072063;28;20059;-76
2023/06/15 01:33:52;;;;;;;7.30;2.63;;;15.50;98.90;;;;;;5072048;28;20098;-76
2023/06/15 01:36:19;;;;;;;5.00;3.05;;;15.50;99.20;;;;;;5070869;28;20040;-76
2023/06/15 01:38:47;;;;;;;5.50;2.65;;;15.40;99.20;;;;;;5072106;28;20131;-76
2023/06/15 01:41:14;;;;;;;9.23;3.00;;;15.40;99.40;;;;;;5072020;28;20040;-76
2023/06/15 01:43:40;;;;;;;8.45;3.15;;;15.30;99.70;;;;;;5053789;28;20055;-76
2023/06/15 01:46:06;;;;;;;6.70;2.80;;;15.30;99.30;;;;;;5053910;28;20087;-76
2023/06/15 01:48:32;;;;;;;5.95;2.85;;;15.40;99.30;;;;;;5053729;28;20033;-76
2023/06/15 01:50:59;;;;;;;7.05;2.35;;;15.30;99.40;;;;;;5053517;28;20101;-76
2023/06/15 01:53:25;;;;;;;8.68;3.00;;;15.40;99.40;;;;;;5054068;28;20064;-76
2023/06/15 01:55:51;;;;;;;6.80;3.08;;;15.30;99.60;;;;;;5036342;28;20056;-75
2023/06/15 01:58:17;;;;;;;5.10;2.53;;;15.30;99.80;;;;;;5053749;28;20041;-76
2023/06/15 02:00:44;;;;;;;6.55;2.65;;;15.20;99.80;;;;;;5036670;28;20128;-76
2023/06/15 02:03:11;;;;;;;7.88;2.67;;;15.10;99.90;;;;;;5053389;28;20056;-76
2023/06/15 02:05:39;;;;;;;9.20;2.80;;;15.00;99.90;;;;;;5053164;28;20097;-76
2023/06/15 02:08:10;;;;;;;7.60;2.90;;;15.00;99.90;;;;;;5071390;28;20404;-76
2023/06/15 02:10:36;;;;;;;11.10;2.83;;;14.90;99.90;;;;;;5053620;28;20102;-76
2023/06/15 02:13:02;;;;;;;6.78;3.10;;;14.80;99.90;;;;;;5071783;28;20047;-76
2023/06/15 02:15:28;;;;;;;6.15;2.60;;;14.80;99.90;;;;;;5071403;28;20049;-76
2023/06/15 02:18:00;;;;;;;6.25;2.67;;;14.70;99.90;;;;;;5071434;28;20483;-76
2023/06/15 02:20:27;;;;;;;8.65;3.08;;;14.60;99.90;;;;;;5052962;28;20052;-75
2023/06/15 02:22:54;;;;;;;6.03;2.75;;;14.80;99.90;;;;;;5071547;28;20037;-76
2023/06/15 02:25:20;;;;;;;7.70;2.83;;;14.50;99.90;;;;;;5053072;28;20055;-76
2023/06/15 02:27:45;;;;;;;6.18;3.08;;;14.50;99.90;;;;;;5071185;28;20044;-76
2023/06/15 02:30:12;;;;;;;6.18;2.63;;;14.50;99.90;;;;;;5071000;28;20040;-76
2023/06/15 02:32:39;;;;;;;10.18;2.83;;;14.40;99.90;;;;;;5053166;28;20041;-76
2023/06/15 02:35:08;;;;;;;6.40;3.25;;;14.40;99.90;;;;;;5053474;28;20060;-76
2023/06/15 02:37:34;;;;;;;9.23;2.88;;;14.30;99.90;;;;;;5071240;28;20450;-76
2023/06/15 02:39:59;;;;;;;6.72;3.05;;;14.20;99.90;;;;;;5053277;28;20380;-75
2023/06/15 02:42:25;;;;;;;8.07;2.63;;;14.20;99.90;;;;;;5070802;28;20047;-76
2023/06/15 02:44:51;;;;;;;11.73;3.17;;;14.20;99.90;;;;;;5052671;28;20051;-76
2023/06/15 02:47:17;;;;;;;6.47;2.90;;;14.10;99.90;;;;;;5070432;28;20054;-76
2023/06/15 02:49:42;;;;;;;6.65;2.83;;;14.00;99.90;;;;;;5070368;28;20044;-76
2023/06/15 02:52:08;;;;;;;10.05;3.10;;;14.00;99.90;;;;;;5070182;28;20396;-76
2023/06/15 02:54:36;;;;;;;6.05;3.22;;;14.00;99.90;;;;;;5052990;28;20070;-76
2023/06/15 02:57:06;;;;;;;5.28;2.90;;;13.90;99.90;;;;;;5052500;28;20060;-76
2023/06/15 02:59:32;;;;;;;7.78;4.00;;;13.80;99.90;;;;;;5070490;28;20396;-76
2023/06/15 03:01:58;;;;;;;6.82;2.90;;;13.80;99.90;;;;;;5070167;28;20079;-75
2023/06/15 03:04:24;;;;;;;5.50;3.20;;;13.70;99.90;;;;;;5070121;28;20476;-75
2023/06/15 03:06:50;;;;;;;6.53;2.95;;;13.60;99.90;;;;;;5070062;28;20487;-76
2023/06/15 03:09:17;;;;;;;7.78;3.45;;;13.70;99.90;;;;;;5070207;28;20048;-76
2023/06/15 03:11:43;;;;;;;8.02;3.45;;;13.60;99.90;;;;;;5052222;28;20045;-76
2023/06/15 03:14:12;;;;;;;7.90;3.33;;;13.60;99.90;;;;;;5051990;28;20048;-76
2023/06/15 03:16:46;;;;;;;7.45;3.20;;;13.60;99.90;;;;;;5052361;28;20055;-75
2023/06/15 03:19:14;;;;;;;5.15;2.83;;;13.50;99.90;;;;;;5051925;28;20055;-76
2023/06/15 03:21:41;;;;;;;7.32;3.28;;;13.50;99.90;;;;;;5069767;28;20060;-75
2023/06/15 03:24:08;;;;;;;11.07;3.40;;;13.50;99.90;;;;;;5070165;28;20076;-75
2023/06/15 03:26:36;;;;;;;9.75;3.40;;;13.40;99.90;;;;;;5052100;28;20066;-75
2023/06/15 03:29:02;;;;;;;10.02;3.22;;;13.30;99.90;;;;;;5052198;28;20056;-75
2023/06/15 03:31:33;;;;;;;7.57;3.08;;;13.30;99.90;;;;;;5051906;28;20121;-75
2023/06/15 03:34:00;;;;;;;6.78;3.25;;;13.50;99.90;;;;;;5052190;28;20115;-75
2023/06/15 03:36:29;;;;;;;5.82;3.40;;;13.30;99.90;;;;;;5051694;28;20127;-75
2023/06/15 03:38:57;;;;;;;3.95;2.60;;;13.30;99.90;;;;;;5061956;28;20048;-76
2023/06/15 03:41:23;;;;;;;8.90;3.38;;;13.20;99.90;;;;;;5052065;28;20049;-76
2023/06/15 03:43:49;;;;;;;10.80;3.70;;;13.10;99.90;;;;;;5051863;28;20048;-75
2023/06/15 03:46:15;;;;;;;10.27;3.42;;;13.10;99.90;;;;;;5035203;28;20064;-75
2023/06/15 03:48:41;;;;;;;7.68;3.78;;;13.20;99.90;;;;;;5051886;28;20495;-76
2023/06/15 03:51:06;;;;;;;7.90;4.30;;;13.20;99.90;;;;;;5070150;28;20047;-75
2023/06/15 03:53:32;;;;;;;9.73;3.42;;;13.20;99.90;;;;;;5051978;28;20106;-75
2023/06/15 03:55:57;;;;;;;5.90;3.33;;;13.20;99.90;;;;;;5069548;28;20114;-75
2023/06/15 03:58:24;;;;;;;11.40;3.70;;;13.20;99.90;;;;;;5035531;28;20048;-75
2023/06/15 04:00:51;;;;;;;7.22;3.78;;;13.20;99.90;;;;;;5055901;28;20052;-75
2023/06/15 04:03:16;;;;;;;7.95;3.17;;;13.20;99.90;;;;;;5065172;28;20448;-75
2023/06/15 04:05:42;;;;;;;5.72;3.50;;;13.30;99.90;;;;;;5055576;28;20147;-76
2023/06/15 04:08:08;;;;;;;8.48;3.15;;;13.20;99.90;;;;;;5055139;28;20469;-75
2023/06/15 04:10:34;;;;;;;6.00;3.25;;;13.20;99.90;;;;;;5073650;28;20403;-75
2023/06/15 04:13:00;;;;;;;7.55;3.92;;;13.20;99.90;;;;;;5073530;28;20719;-75
2023/06/15 04:15:26;;;;;;;8.75;4.05;;;13.20;99.90;;;;;;5073685;28;20039;-76
2023/06/15 04:17:52;;;;;;;5.72;3.08;;;13.20;99.90;;;;;;5055320;28;20048;-76
2023/06/15 04:20:17;;;;;;;11.15;3.15;;;13.30;99.90;;;;;;5055406;28;20051;-75
2023/06/15 04:22:43;;;;;;;8.07;4.03;;;13.30;99.90;;;;;;5073389;28;20044;-75
2023/06/15 04:25:09;;;;;;;12.32;3.53;;;13.40;99.90;;;;;;5073078;28;20040;-75
2023/06/15 04:27:35;;;;;;;11.63;4.13;;;13.40;99.90;;;;;;5055435;28;20063;-75
2023/06/15 04:30:05;;;;;;;7.43;3.92;;;13.50;99.90;;;;;;5055187;28;20087;-75
2023/06/15 04:32:32;;;;;;;12.30;3.95;;;13.50;99.90;;;;;;5055151;28;20036;-76
2023/06/15 04:34:59;;;;;;;7.28;3.63;;;13.60;99.90;;;;;;5055201;28;20407;-75
2023/06/15 04:37:28;;;;;;;11.38;4.20;;;13.60;99.90;;;;;;5072860;28;20040;-75
2023/06/15 04:39:59;;;;;;;11.60;3.72;;;13.70;99.90;;;;;;5046614;28;20048;-75
2023/06/15 04:42:26;;;;;;;8.55;3.72;;;13.80;99.90;;;;;;5072926;28;20048;-75
2023/06/15 04:44:53;;;;;;;10.50;4.10;;;13.90;99.90;;;;;;5072817;28;20519;-76
2023/06/15 04:47:18;;;;;;;7.57;3.58;;;14.00;99.90;;;;;;5072890;28;20499;-75
2023/06/15 04:49:44;;;;;;;6.72;3.70;;;14.10;99.90;;;;;;5072927;28;20109;-75
2023/06/15 04:52:10;;;;;;;8.00;4.03;;;14.20;99.90;;;;;;5072858;28;20040;-75
2023/06/15 04:54:36;;;;;;;8.27;4.38;;;14.20;99.90;;;;;;5054915;28;20037;-75
2023/06/15 04:57:02;;;;;;;10.48;4.45;;;14.30;99.90;;;;;;5054532;28;20044;-75
2023/06/15 04:59:27;;;;;;;8.85;4.43;;;14.40;99.90;;;;;;5072896;28;20036;-75
2023/06/15 05:01:53;;;;;;;10.18;4.57;;;14.50;99.90;;;;;;5054832;28;20397;-76
2023/06/15 05:04:21;;;;;;;10.82;3.90;;;14.70;99.90;;;;;;5072526;28;20135;-75
2023/06/15 05:06:47;;;;;;;12.43;3.97;;;14.70;99.90;;;;;;5054676;28;20402;-75
2023/06/15 05:09:12;;;;;;;9.30;4.25;;;14.90;99.90;;;;;;5072343;28;20399;-76
2023/06/15 05:11:38;;;;;;;8.32;4.15;;;15.00;99.90;;;;;;5072503;28;20369;-76
2023/06/15 05:14:04;;;;;;;11.85;3.78;;;15.10;99.90;;;;;;5054507;28;20080;-75
2023/06/15 05:16:30;;;;;;;8.02;3.70;;;15.30;99.90;;;;;;5072425;28;20506;-76
2023/06/15 05:18:56;;;;;;;13.65;4.13;;;15.40;99.90;;;;;;5054274;28;20047;-75
2023/06/15 05:21:22;;;;;;;8.75;4.07;;;15.50;99.90;;;;;;5071970;28;20048;-76
2023/06/15 05:23:47;;;;;;;8.15;3.90;;;15.70;99.90;;;;;;5072412;28;20044;-76
2023/06/15 05:26:13;;;;;;;8.10;4.32;;;15.80;99.90;;;;;;5054207;28;20098;-76
2023/06/15 05:28:39;;;;;;;8.80;4.22;;;15.90;99.90;;;;;;5072231;28;20098;-76
2023/06/15 05:31:08;;;;;;;10.93;4.07;;;16.10;99.90;;;;;;5072303;28;20539;-76
2023/06/15 05:33:34;;;;;;;7.82;4.22;;;16.20;99.90;;;;;;5054099;28;20059;-76
2023/06/15 05:36:00;;;;;;;8.63;3.88;;;16.30;99.90;;;;;;5054121;28;20040;-76
2023/06/15 05:38:26;;;;;;;8.80;3.20;;;16.50;99.90;;;;;;5071842;28;20568;-76
2023/06/15 05:40:51;;;;;;;9.85;3.20;;;16.60;99.90;;;;;;5071703;28;20484;-77
2023/06/15 05:43:17;;;;;;;9.52;3.05;;;16.80;99.90;;;;;;5053754;28;20086;-77
2023/06/15 05:45:43;;;;;;;7.25;3.38;;;16.90;99.90;;;;;;5071748;28;20094;-76
2023/06/15 05:48:08;;;;;;;12.68;3.13;;;17.10;99.90;;;;;;5071682;28;20094;-77
2023/06/15 05:50:35;;;;;;;4.45;2.55;;;17.20;99.90;;;;;;5071727;28;20757;-77
2023/06/15 05:53:01;;;;;;;6.72;2.90;;;17.30;99.90;;;;;;5071629;28;20044;-76
2023/06/15 05:55:28;;;;;;;10.15;2.92;;;17.50;99.90;;;;;;5071361;28;20527;-77
2023/06/15 05:57:54;;;;;;;4.65;2.45;;;17.60;99.90;;;;;;5053490;28;20062;-77
2023/06/15 06:00:22;;;;;;;11.10;2.67;;;17.70;99.90;;;;;;5036758;28;20147;-77
2023/06/15 06:02:48;;;;;;;9.88;2.50;;;17.90;99.90;;;;;;5053220;28;20049;-76
2023/06/15 06:05:13;;;;;;;7.28;2.70;;;18.00;99.90;;;;;;5071271;28;20462;-78
2023/06/15 06:07:39;;;;;;;6.47;2.45;;;18.10;99.90;;;;;;5071606;28;20090;-76
2023/06/15 06:10:06;;;;;;;7.35;2.20;;;18.30;99.90;;;;;;5071510;28;20613;-77
2023/06/15 06:12:31;;;;;;;5.55;2.50;;;18.40;99.90;;;;;;5052543;28;20527;-76
2023/06/15 06:14:57;;;;;;;9.38;2.38;;;18.50;99.90;;;;;;5071271;28;20041;-75
2023/06/15 06:17:22;;;;;;;6.72;2.58;;;18.60;99.90;;;;;;5071069;28;20522;-78
2023/06/15 06:19:51;;;;;;;7.63;2.00;;;18.80;99.90;;;;;;5071034;28;20078;-76
2023/06/15 06:22:17;;;;;;;4.40;2.10;;;18.80;99.30;;;;;;5070806;28;20469;-76
2023/06/15 06:24:43;;;;;;;14.93;2.25;;;19.00;99.90;;;;;;5071433;28;20127;-77
2023/06/15 06:27:08;;;;;;;4.55;2.33;;;19.20;99.70;;;;;;5071021;28;20040;-77
2023/06/15 06:29:34;;;;;;;8.70;2.20;;;19.30;99.00;;;;;;5071051;28;20037;-76
2023/06/15 06:31:59;;;;;;;6.93;1.92;;;19.50;98.60;;;;;;5071918;28;20040;-76
2023/06/15 06:34:25;;;;;;;5.72;2.00;;;19.60;97.00;;;;;;5071348;28;20053;-77
2023/06/15 06:36:51;;;;;;;8.52;2.25;;;19.80;97.10;;;;;;5071710;28;20040;-77
2023/06/15 06:39:17;;;;;;;5.05;2.10;;;20.10;97.10;;;;;;5072184;28;20037;-77
2023/06/15 06:41:43;;;;;;;10.20;2.97;;;20.40;96.70;;;;;;5035803;28;20053;-77
2023/06/15 06:44:09;;;;;;;10.50;2.38;;;20.60;96.10;;;;;;5070841;28;20123;-77
2023/06/15 06:46:36;;;;;;;5.15;1.80;;;20.90;96.20;;;;;;5070919;28;20545;-77
2023/06/15 06:49:01;;;;;;;6.90;1.90;;;21.10;94.90;;;;;;5062671;28;20693;-78
2023/06/15 06:51:27;;;;;;;5.03;2.10;;;21.40;94.90;;;;;;5070635;28;20096;-76
2023/06/15 06:53:53;;;;;;;4.65;1.83;;;21.70;94.90;;;;;;5070591;28;20438;-78
2023/06/15 06:56:19;;;;;;;8.27;2.15;;;22.00;93.70;;;;;;5052530;28;20078;-77
2023/06/15 06:58:44;;;;;;;8.93;1.90;;;22.20;93.60;;;;;;5052390;28;20101;-76
2023/06/15 07:01:10;;;;;;;5.35;1.75;;;22.40;93.30;;;;;;5070646;28;20044;-76
2023/06/15 07:03:38;;;;;;;4.18;1.70;;;22.70;93.30;;;;;;5070712;28;20048;-77
2023/06/15 07:06:04;;;;;;;8.90;2.38;;;22.90;92.90;;;;;;5052691;28;20103;-77
2023/06/15 07:08:30;;;;;;;7.43;1.90;;;23.20;92.60;;;;;;5053498;28;20036;-77
2023/06/15 07:10:56;;;;;;;10.20;2.20;;;23.50;91.50;;;;;;5070693;28;20480;-78
2023/06/15 07:13:21;;;;;;;4.68;2.10;;;23.70;91.40;;;;;;5052469;28;20082;-78
2023/06/15 07:15:49;;;;;;;5.88;1.70;;;23.90;91.70;;;;;;5053069;28;20063;-77
2023/06/15 07:18:15;;;;;;;6.15;2.33;;;24.20;91.00;;;;;;5052760;28;20053;-76
2023/06/15 07:20:41;;;;;;;4.65;1.85;;;24.30;90.50;;;;;;5070292;28;20076;-78
2023/06/15 07:23:07;;;;;;;6.88;2.13;;;24.30;90.60;;;;;;5071354;28;20113;-77
2023/06/15 07:25:33;;;;;;;4.85;1.80;;;24.60;90.70;;;;;;5036198;28;20419;-79
2023/06/15 07:27:58;;;;;;;5.07;2.03;;;24.70;90.50;;;;;;5155351;22;20041;-78
2023/06/15 07:30:24;;;;;;;4.05;1.75;;;25.00;90.00;;;;;;5033463;28;20048;-78
2023/06/15 07:32:50;;;;;;;7.03;1.90;;;25.00;88.40;;;;;;5053899;28;20092;-78
2023/06/15 07:35:15;;;;;;;7.00;1.80;;;25.30;88.50;;;;;;5055124;28;20045;-79
2023/06/15 07:37:41;;;;;;;7.78;2.30;;;25.50;88.60;;;;;;5036601;28;20049;-79
2023/06/15 07:40:07;;;;;;;6.13;1.75;;;25.80;87.30;;;;;;5054915;28;20098;-78
2023/06/15 07:42:33;;;;;;;6.03;1.77;;;25.90;87.40;;;;;;5036335;28;20045;-78
2023/06/15 07:44:58;;;;;;;4.72;1.63;;;26.00;83.90;;;;;;5054620;28;20048;-78
2023/06/15 07:47:24;;;;;;;4.97;1.40;;;26.20;86.00;;;;;;5036757;28;20079;-79
2023/06/15 07:49:49;;;;;;;4.47;1.75;;;26.20;84.60;;;;;;5054661;28;20061;-78
2023/06/15 07:52:15;;;;;;;5.07;1.65;;;26.20;83.70;;;;;;5054512;28;20060;-78
2023/06/15 07:54:41;;;;;;;8.35;1.88;;;26.50;83.60;;;;;;5036205;28;20131;-78
2023/06/15 07:57:07;;;;;;;4.70;1.85;;;26.80;82.90;;;;;;5028265;28;20467;-78
2023/06/15 07:59:32;;;;;;;5.40;1.60;;;26.80;82.90;;;;;;5019740;28;20055;-78
2023/06/15 08:01:58;;;;;;;4.82;1.58;;;26.70;80.40;;;;;;5037576;28;20128;-77
2023/06/15 08:04:24;;;;;;;3.88;1.58;;;26.90;81.00;;;;;;5037186;28;20107;-78
2023/06/15 08:06:49;;;;;;;4.28;1.60;;;27.00;80.80;;;;;;5036105;28;20549;-78
2023/06/15 08:09:15;;;;;;;5.25;2.10;;;27.20;80.50;;;;;;5054478;28;20037;-78
2023/06/15 08:11:41;;;;;;;9.93;2.15;;;27.20;78.70;;;;;;5054527;28;20415;-78
2023/06/15 08:14:07;;;;;;;9.10;2.00;;;27.20;78.70;;;;;;5055307;28;20047;-79
2023/06/15 08:16:32;;;;;;;7.20;1.80;;;27.40;79.70;;;;;;5036516;28;20049;-78
2023/06/15 08:18:58;;;;;;;11.07;2.13;;;27.50;78.60;;;;;;5036025;28;20044;-78
2023/06/15 08:21:24;;;;;;;5.30;1.67;;;27.60;78.60;;;;;;5053699;28;20515;-78
2023/06/15 08:23:50;;;;;;;5.95;2.03;;;27.60;77.50;;;;;;5035526;28;20056;-77
2023/06/15 08:26:16;;;;;;;11.13;1.92;;;27.50;77.80;;;;;;5054404;28;20045;-79
2023/06/15 08:28:42;;;;;;;4.88;1.65;;;27.70;75.20;;;;;;5054119;28;20045;-79
2023/06/15 08:31:07;;;;;;;4.53;1.65;;;27.60;77.70;;;;;;5036564;28;20483;-80
2023/06/15 08:33:34;;;;;;;9.60;2.38;;;27.50;77.20;;;;;;5054058;28;20037;-80
2023/06/15 08:35:59;;;;;;;4.30;1.60;;;27.50;77.40;;;;;;5053436;28;20041;-80
2023/06/15 08:38:25;;;;;;;5.55;1.80;;;27.50;76.20;;;;;;5035436;28;20047;-79
2023/06/15 08:40:51;;;;;;;6.97;1.70;;;27.50;77.30;;;;;;5035310;28;20583;-78
2023/06/15 08:43:18;;;;;;;5.93;2.00;;;27.30;75.70;;;;;;5054068;28;20396;-78
2023/06/15 08:45:48;;;;;;;6.47;2.28;;;27.60;75.50;;;;;;5034618;28;20139;-78
2023/06/15 08:48:16;;;;;;;7.78;1.77;;;27.80;75.40;;;;;;5036237;28;20053;-78
2023/06/15 08:50:44;;;;;;;9.50;1.98;;;27.60;72.40;;;;;;5038029;28;20036;-77
2023/06/15 08:53:12;;;;;;;12.00;2.40;;;27.70;75.30;;;;;;5037965;28;20130;-78
2023/06/15 08:55:37;;;;;;;9.20;1.70;;;27.80;75.50;;;;;;5053458;28;20094;-78
2023/06/15 08:58:05;;;;;;;9.00;2.05;;;27.80;75.50;;;;;;5053760;28;20140;-79
2023/06/15 09:00:31;;;;;;;8.82;1.90;;;28.10;75.70;;;;;;5055518;28;20051;-80
2023/06/15 09:02:59;;;;;;;9.80;2.22;;;28.10;75.70;;;;;;5034772;28;20586;-77
2023/06/15 09:05:26;;;;;;;8.70;1.85;;;28.10;75.10;;;;;;5053047;28;20080;-80
2023/06/15 09:07:52;;;;;;;4.40;1.60;;;28.20;75.10;;;;;;5052694;28;20127;-78
2023/06/15 09:10:19;;;;;;;8.77;1.60;;;28.20;75.50;;;;;;5052729;28;20045;-79
2023/06/15 09:12:45;;;;;;;5.43;2.20;;;28.30;75.20;;;;;;5052751;28;20052;-78
2023/06/15 09:15:15;;;;;;;3.67;1.70;;;28.40;75.10;;;;;;5052621;28;20048;-78
2023/06/15 09:17:41;;;;;;;7.57;1.77;;;28.50;75.70;;;;;;5052544;28;20051;-77
2023/06/15 09:20:08;;;;;;;7.28;2.03;;;28.60;74.90;;;;;;5034606;28;20578;-78
2023/06/15 09:22:45;;;;;;;6.95;1.90;;;28.50;73.20;;;;;;5026252;28;20450;-78
2023/06/15 09:25:16;;;;;;;7.03;1.83;;;28.70;72.10;;;;;;5052519;28;20057;-78
2023/06/15 09:28:05;;;;;;;4.30;1.48;;;28.80;73.20;;;;;;5044621;28;20497;-79
2023/06/15 09:30:36;;;;;;;4.63;1.77;;;28.80;72.90;;;;;;5052403;28;20064;-79
2023/06/15 09:33:18;;;;;;;6.93;2.08;;;28.40;71.70;;;;;;5052443;28;20427;-79
2023/06/15 09:35:57;;;;;;;10.10;2.38;;;28.70;71.20;;;;;;5052246;28;20063;-78
2023/06/15 09:38:33;;;;;;;4.90;2.15;;;28.60;70.70;;;;;;5034785;28;20396;-80
2023/06/15 09:41:06;;;;;;;6.38;2.00;;;28.60;72.20;;;;;;5043674;28;20056;-79
2023/06/15 09:43:36;;;;;;;5.13;2.08;;;28.70;71.70;;;;;;5052831;28;20127;-78
2023/06/15 09:46:08;;;;;;;6.07;1.77;;;28.70;71.50;;;;;;5035084;28;20033;-80
2023/06/15 09:48:37;;;;;;;6.13;1.90;;;28.80;72.40;;;;;;5052399;28;20041;-78
2023/06/15 09:51:03;;;;;;;7.57;2.05;;;29.00;71.80;;;;;;5034772;28;20041;-79
2023/06/15 09:53:30;;;;;;;4.50;2.03;;;29.10;70.40;;;;;;5053144;28;20045;-79
2023/06/15 09:55:58;;;;;;;9.25;1.77;;;29.00;70.20;;;;;;5034914;28;20393;-78
2023/06/15 09:58:24;;;;;;;2.90;1.60;;;29.10;70.80;;;;;;5033972;28;20044;-80
2023/06/15 10:00:49;;;;;;;7.75;1.77;;;29.30;70.70;;;;;;5033710;28;20036;-80
2023/06/15 10:03:21;;;;;;;5.72;1.85;;;29.30;70.80;;;;;;5051578;28;20045;-80
2023/06/15 10:05:52;;;;;;;3.80;1.95;;;29.10;70.00;;;;;;5034254;28;20045;-79
2023/06/15 10:08:19;;;;;;;5.07;1.65;;;29.20;70.50;;;;;;5017076;28;20053;-80
2023/06/15 10:10:46;;;;;;;11.13;2.30;;;29.10;70.70;;;;;;5051864;28;20068;-79
2023/06/15 10:13:22;;;;;;;4.65;1.70;;;29.20;71.00;;;;;;5033794;28;20048;-79
2023/06/15 10:15:52;;;;;;;5.90;1.92;;;29.20;70.30;;;;;;5033682;28;20171;-78
2023/06/15 10:18:20;;;;;;;3.78;1.92;;;29.20;69.20;;;;;;5051716;28;20044;-79
2023/06/15 10:20:52;;;;;;;5.95;2.00;;;29.30;69.90;;;;;;5051923;28;20118;-78
2023/06/15 10:23:26;;;;;;;4.78;1.85;;;29.30;68.90;;;;;;5051679;28;20044;-79
2023/06/15 10:25:57;;;;;;;;;;;29.50;70.00;;;;;;5034182;28;20435;-78
2023/06/15 10:28:28;;;;;;;8.40;2.03;;;29.50;69.80;;;;;;5051061;28;19931;-80
2023/06/15 10:31:16;;;;;;;4.13;2.30;;;29.60;70.70;;;;;;5051112;28;20481;-79
2023/06/15 10:33:49;;;;;;;7.43;1.98;;;29.80;69.90;;;;;;5050700;28;20048;-79
2023/06/15 10:36:24;;;;;;;4.65;2.30;;;29.60;69.40;;;;;;5033377;28;20041;-79
2023/06/15 10:39:10;;;;;;;6.78;1.95;;;29.60;68.40;;;;;;5016987;28;20040;-80
2023/06/15 10:41:39;;;;;;;5.68;1.80;;;29.60;68.50;;;;;;5032336;28;20049;-79
2023/06/15 10:44:07;;;;;;;4.20;1.70;;;29.70;70.50;;;;;;5050773;28;20041;-80
2023/06/15 10:46:36;;;;;;;4.38;1.95;;;29.80;70.30;;;;;;5032893;28;20076;-80
2023/06/15 10:49:04;;;;;;;9.63;1.70;;;29.80;70.00;;;;;;5050546;28;20049;-79
2023/06/15 10:51:33;;;;;;;4.55;1.95;;;29.90;70.60;;;;;;5016543;28;20052;-78
2023/06/15 10:54:01;;;;;;;9.73;2.03;;;30.20;70.90;;;;;;5050954;28;20059;-77
2023/06/15 10:56:27;;;;;;;6.50;2.10;;;30.10;68.90;;;;;;5033007;28;20045;-79
2023/06/15 10:58:55;;;;;;;7.07;2.08;;;30.30;70.30;;;;;;5032992;28;20405;-78
2023/06/15 11:01:29;;;;;;;7.47;1.90;;;30.20;69.30;;;;;;5033714;28;20041;-79
2023/06/15 11:03:56;;;;;;;6.20;1.65;;;30.00;68.90;;;;;;5032818;28;20077;-78
2023/06/15 11:06:29;;;;;;;4.55;2.08;;;30.20;69.20;;;;;;5050943;28;20037;-79
2023/06/15 11:09:02;;;;;;;7.15;2.38;;;30.20;69.20;;;;;;5050546;28;20120;-79
2023/06/15 11:11:33;;;;;;;5.53;2.03;;;30.30;67.90;;;;;;5025542;28;20047;-78
2023/06/15 11:14:03;;;;;;;3.92;1.90;;;30.50;68.80;;;;;;5033182;28;20060;-79
2023/06/15 11:16:34;;;;;;;8.43;1.90;;;30.50;67.90;;;;;;5035441;28;20045;-80
2023/06/15 11:19:11;;;;;;;4.72;2.00;;;30.40;68.00;;;;;;5050140;28;20120;-77
2023/06/15 11:21:44;;;;;;;8.98;2.15;;;30.50;67.60;;;;;;5025539;28;20449;-78
2023/06/15 11:24:13;;;;;;;4.82;2.00;;;30.60;67.10;;;;;;5032318;28;20048;-80
2023/06/15 11:26:43;;;;;;;9.30;2.90;;;30.70;68.30;;;;;;5050519;28;20052;-80
2023/06/15 11:29:12;;;;;;;5.75;1.95;;;30.60;66.20;;;;;;5050157;28;20416;-79
2023/06/15 11:31:41;;;;;;;5.78;1.90;;;30.80;66.70;;;;;;5050119;28;20071;-80
2023/06/15 11:34:10;;;;;;;5.18;1.88;;;30.80;66.90;;;;;;5032052;28;20055;-81
2023/06/15 11:36:37;;;;;;;7.55;1.95;;;30.80;65.40;;;;;;5032039;28;20053;-78
2023/06/15 11:39:07;;;;;;;5.32;1.85;;;30.80;66.20;;;;;;5049863;28;20033;-80
2023/06/15 11:41:32;;;;;;;4.55;1.60;;;30.90;66.40;;;;;;5050146;28;20110;-81
2023/06/15 11:43:58;;;;;;;3.22;1.88;;;30.80;65.60;;;;;;5050342;28;20037;-81
2023/06/15 11:46:25;;;;;;;4.78;1.85;;;30.80;65.10;;;;;;5050144;28;20040;-81
2023/06/15 11:48:58;;;;;;;6.05;1.85;;;30.70;64.10;;;;;;5031981;28;20114;-79
2023/06/15 11:51:25;;;;;;;4.78;1.88;;;30.70;62.90;;;;;;5049771;28;20037;-83
2023/06/15 11:53:53;;;;;;;2.90;1.55;;;30.80;64.40;;;;;;5050107;28;20049;-79
2023/06/15 11:56:18;;;;;;;6.43;1.90;;;30.80;63.60;;;;;;5050136;28;20447;-79
2023/06/15 11:58:46;;;;;;;8.15;1.83;;;31.00;64.60;;;;;;5050276;28;20052;-81
2023/06/15 12:01:14;;;;;;;5.72;1.70;;;31.10;64.00;;;;;;5032621;28;20075;-81
2023/06/15 12:03:47;;;;;;;5.93;1.98;;;31.00;62.70;;;;;;5049933;28;20041;-79
2023/06/15 12:06:18;;;;;;;6.18;1.55;;;31.00;63.60;;;;;;5049560;28;20077;-78
2023/06/15 12:08:45;;;;;;;4.45;1.58;;;31.00;64.50;;;;;;5050284;28;20053;-80
2023/06/15 12:11:11;;;;;;;4.38;1.55;;;31.20;64.50;;;;;;5032473;28;20044;-80
2023/06/15 12:13:38;;;;;;;4.97;2.15;;;31.30;63.40;;;;;;5050131;28;20041;-80
2023/06/15 12:16:05;;;;;;;6.28;1.90;;;31.20;64.10;;;;;;5016002;28;20488;-80
2023/06/15 12:18:30;;;;;;;4.72;1.75;;;31.20;63.90;;;;;;5032300;28;20128;-81
2023/06/15 12:20:56;;;;;;;6.40;1.70;;;31.30;64.00;;;;;;5034540;28;20124;-81
2023/06/15 12:23:30;;;;;;;4.97;1.80;;;31.30;63.00;;;;;;5035699;28;20274;-80
2023/06/15 12:25:56;;;;;;;6.38;1.90;;;31.20;60.80;;;;;;5036041;28;20045;-79
2023/06/15 12:28:26;;;;;;;5.63;1.63;;;31.10;62.50;;;;;;5053544;28;20102;-79
2023/06/15 12:31:00;;;;;;;6.40;1.90;;;31.20;62.30;;;;;;5035740;28;20053;-79
2023/06/15 12:33:27;;;;;;;;;;;31.20;60.60;;;;;;5053763;28;20052;-80
2023/06/15 12:35:54;;;;;;;5.13;1.70;;;31.20;60.10;;;;;;5035041;28;19920;-80
2023/06/15 12:38:22;;;;;;;3.33;1.63;;;31.20;62.30;;;;;;5035891;28;20056;-81
2023/06/15 12:40:48;;;;;;;10.00;1.88;;;31.10;63.60;;;;;;5035116;28;20049;-80
2023/06/15 12:43:18;;;;;;;4.60;2.10;;;31.30;62.90;;;;;;5053416;28;20042;-80
2023/06/15 12:45:44;;;;;;;4.03;1.90;;;31.30;63.40;;;;;;5035556;28;20393;-81